sensor_id;sensor_type;location;lat;lon;timestamp;P1;durP1;ratioP1;P2;durP2;ratioP2
13568;SDS011;6856;51.460;7.158;2022-11-20T00:03:25;19.27;;;14.70;;
13568;SDS011;6856;51.460;7.158;2022-11-20T00:06:12;20.07;;;15.17;;
13568;SDS011;6856;51.460;7.158;2022-11-20T00:09:09;17.90;;;15.20;;
13568;SDS011;6856;51.460;7.158;2022-11-20T00:11:55;17.27;;;14.23;;
13568;SDS011;6856;51.460;7.158;2022-11-20T00:14:38;16.90;;;14.00;;
13568;SDS011;6856;51.460;7.158;2022-11-20T00:17:29;18.80;;;14.30;;
13568;SDS011;6856;51.460;7.158;2022-11-20T00:20:16;16.10;;;13.70;;
13568;SDS011;6856;51.460;7.158;2022-11-20T00:23:00;16.50;;;14.37;;
13568;SDS011;6856;51.460;7.158;2022-11-20T00:25:50;15.97;;;13.27;;
13568;SDS011;6856;51.460;7.158;2022-11-20T00:28:31;15.67;;;13.70;;
13568;SDS011;6856;51.460;7.158;2022-11-20T00:31:09;16.10;;;12.93;;
13568;SDS011;6856;51.460;7.158;2022-11-20T00:36:44;16.77;;;14.03;;
13568;SDS011;6856;51.460;7.158;2022-11-20T00:39:20;16.30;;;13.03;;
13568;SDS011;6856;51.460;7.158;2022-11-20T00:42:02;14.83;;;12.20;;
13568;SDS011;6856;51.460;7.158;2022-11-20T00:44:43;14.23;;;11.67;;
13568;SDS011;6856;51.460;7.158;2022-11-20T00:47:21;15.60;;;13.17;;
13568;SDS011;6856;51.460;7.158;2022-11-20T00:50:06;16.00;;;12.90;;
13568;SDS011;6856;51.460;7.158;2022-11-20T00:52:49;15.57;;;12.90;;
13568;SDS011;6856;51.460;7.158;2022-11-20T00:55:25;13.90;;;11.20;;
13568;SDS011;6856;51.460;7.158;2022-11-20T00:58:11;16.33;;;13.33;;
13568;SDS011;6856;51.460;7.158;2022-11-20T01:06:57;14.17;;;12.67;;
13568;SDS011;6856;51.460;7.158;2022-11-20T01:09:37;14.63;;;12.83;;
13568;SDS011;6856;51.460;7.158;2022-11-20T01:15:19;17.60;;;13.97;;
13568;SDS011;6856;51.460;7.158;2022-11-20T01:18:08;18.57;;;15.37;;
13568;SDS011;6856;51.460;7.158;2022-11-20T01:23:54;23.73;;;18.93;;
13568;SDS011;6856;51.460;7.158;2022-11-20T01:26:31;23.93;;;18.13;;
13568;SDS011;6856;51.460;7.158;2022-11-20T01:29:21;21.20;;;17.53;;
13568;SDS011;6856;51.460;7.158;2022-11-20T01:32:06;22.70;;;17.80;;
13568;SDS011;6856;51.460;7.158;2022-11-20T01:35:21;20.00;;;16.43;;
13568;SDS011;6856;51.460;7.158;2022-11-20T01:38:06;18.97;;;15.97;;
13568;SDS011;6856;51.460;7.158;2022-11-20T01:40:57;17.20;;;13.30;;
13568;SDS011;6856;51.460;7.158;2022-11-20T01:43:58;16.90;;;14.00;;
13568;SDS011;6856;51.460;7.158;2022-11-20T01:46:54;16.47;;;13.07;;
13568;SDS011;6856;51.460;7.158;2022-11-20T01:49:58;17.47;;;14.23;;
13568;SDS011;6856;51.460;7.158;2022-11-20T01:53:25;17.10;;;14.17;;
13568;SDS011;6856;51.460;7.158;2022-11-20T01:57:16;17.00;;;12.83;;
13568;SDS011;6856;51.460;7.158;2022-11-20T02:00:57;22.53;;;18.13;;
13568;SDS011;6856;51.460;7.158;2022-11-20T02:04:06;27.23;;;22.00;;
13568;SDS011;6856;51.460;7.158;2022-11-20T02:07:09;42.20;;;30.57;;
13568;SDS011;6856;51.460;7.158;2022-11-20T02:10:05;35.70;;;25.70;;
13568;SDS011;6856;51.460;7.158;2022-11-20T02:16:30;21.90;;;17.80;;
13568;SDS011;6856;51.460;7.158;2022-11-20T02:19:31;22.60;;;17.67;;
13568;SDS011;6856;51.460;7.158;2022-11-20T02:22:29;21.60;;;16.47;;
13568;SDS011;6856;51.460;7.158;2022-11-20T02:28:23;16.67;;;14.30;;
13568;SDS011;6856;51.460;7.158;2022-11-20T02:31:10;16.33;;;13.70;;
13568;SDS011;6856;51.460;7.158;2022-11-20T02:33:54;16.67;;;13.63;;
13568;SDS011;6856;51.460;7.158;2022-11-20T02:36:40;14.93;;;12.63;;
13568;SDS011;6856;51.460;7.158;2022-11-20T02:42:51;15.03;;;13.07;;
13568;SDS011;6856;51.460;7.158;2022-11-20T02:48:45;14.80;;;12.33;;
13568;SDS011;6856;51.460;7.158;2022-11-20T02:51:22;14.67;;;12.90;;
13568;SDS011;6856;51.460;7.158;2022-11-20T02:54:09;15.87;;;12.67;;
13568;SDS011;6856;51.460;7.158;2022-11-20T03:00:22;14.33;;;12.10;;
13568;SDS011;6856;51.460;7.158;2022-11-20T03:03:05;14.47;;;12.50;;
13568;SDS011;6856;51.460;7.158;2022-11-20T03:05:54;15.87;;;12.90;;
13568;SDS011;6856;51.460;7.158;2022-11-20T03:08:44;13.00;;;11.60;;
13568;SDS011;6856;51.460;7.158;2022-11-20T03:11:20;15.00;;;12.73;;
13568;SDS011;6856;51.460;7.158;2022-11-20T03:14:11;13.27;;;11.60;;
13568;SDS011;6856;51.460;7.158;2022-11-20T03:20:48;13.17;;;11.77;;
13568;SDS011;6856;51.460;7.158;2022-11-20T03:23:33;16.10;;;13.47;;
13568;SDS011;6856;51.460;7.158;2022-11-20T03:26:25;15.50;;;13.50;;
13568;SDS011;6856;51.460;7.158;2022-11-20T03:29:22;15.30;;;12.73;;
13568;SDS011;6856;51.460;7.158;2022-11-20T03:35:44;13.67;;;11.90;;
13568;SDS011;6856;51.460;7.158;2022-11-20T03:38:25;13.90;;;12.40;;
13568;SDS011;6856;51.460;7.158;2022-11-20T03:41:19;14.93;;;12.93;;
13568;SDS011;6856;51.460;7.158;2022-11-20T03:44:15;15.43;;;12.90;;
13568;SDS011;6856;51.460;7.158;2022-11-20T03:46:56;14.90;;;13.03;;
13568;SDS011;6856;51.460;7.158;2022-11-20T03:52:48;14.53;;;12.47;;
13568;SDS011;6856;51.460;7.158;2022-11-20T03:55:35;15.33;;;12.73;;
13568;SDS011;6856;51.460;7.158;2022-11-20T03:58:24;15.20;;;13.40;;
13568;SDS011;6856;51.460;7.158;2022-11-20T04:05:30;15.00;;;12.17;;
13568;SDS011;6856;51.460;7.158;2022-11-20T04:08:16;15.00;;;12.03;;
13568;SDS011;6856;51.460;7.158;2022-11-20T04:14:39;15.00;;;11.73;;
13568;SDS011;6856;51.460;7.158;2022-11-20T04:17:30;14.77;;;12.07;;
13568;SDS011;6856;51.460;7.158;2022-11-20T04:20:45;16.00;;;12.67;;
13568;SDS011;6856;51.460;7.158;2022-11-20T04:23:24;13.90;;;12.13;;
13568;SDS011;6856;51.460;7.158;2022-11-20T04:29:37;12.73;;;11.13;;
13568;SDS011;6856;51.460;7.158;2022-11-20T04:32:22;15.53;;;13.30;;
13568;SDS011;6856;51.460;7.158;2022-11-20T04:34:58;15.70;;;13.53;;
13568;SDS011;6856;51.460;7.158;2022-11-20T04:37:54;18.00;;;14.67;;
13568;SDS011;6856;51.460;7.158;2022-11-20T04:40:39;17.53;;;14.57;;
13568;SDS011;6856;51.460;7.158;2022-11-20T04:43:27;15.83;;;13.73;;
13568;SDS011;6856;51.460;7.158;2022-11-20T04:49:13;13.80;;;12.23;;
13568;SDS011;6856;51.460;7.158;2022-11-20T04:51:57;13.23;;;11.27;;
13568;SDS011;6856;51.460;7.158;2022-11-20T04:57:55;13.53;;;11.37;;
13568;SDS011;6856;51.460;7.158;2022-11-20T05:00:35;14.97;;;12.10;;
13568;SDS011;6856;51.460;7.158;2022-11-20T05:03:26;13.77;;;11.27;;
13568;SDS011;6856;51.460;7.158;2022-11-20T05:06:02;13.10;;;11.60;;
13568;SDS011;6856;51.460;7.158;2022-11-20T05:15:03;13.53;;;11.33;;
13568;SDS011;6856;51.460;7.158;2022-11-20T05:17:46;14.67;;;12.70;;
13568;SDS011;6856;51.460;7.158;2022-11-20T05:20:27;17.40;;;13.40;;
13568;SDS011;6856;51.460;7.158;2022-11-20T05:23:28;13.17;;;11.77;;
13568;SDS011;6856;51.460;7.158;2022-11-20T05:26:12;15.23;;;12.47;;
13568;SDS011;6856;51.460;7.158;2022-11-20T05:29:31;13.93;;;11.37;;
13568;SDS011;6856;51.460;7.158;2022-11-20T05:32:08;15.40;;;13.00;;
13568;SDS011;6856;51.460;7.158;2022-11-20T05:34:59;14.30;;;12.80;;
13568;SDS011;6856;51.460;7.158;2022-11-20T05:37:39;15.40;;;13.13;;
13568;SDS011;6856;51.460;7.158;2022-11-20T05:40:21;17.47;;;14.27;;
13568;SDS011;6856;51.460;7.158;2022-11-20T05:43:19;16.83;;;13.17;;
13568;SDS011;6856;51.460;7.158;2022-11-20T05:49:09;16.60;;;13.93;;
13568;SDS011;6856;51.460;7.158;2022-11-20T05:52:01;15.50;;;13.67;;
13568;SDS011;6856;51.460;7.158;2022-11-20T05:54:39;14.93;;;13.27;;
13568;SDS011;6856;51.460;7.158;2022-11-20T05:57:50;16.63;;;13.73;;
13568;SDS011;6856;51.460;7.158;2022-11-20T06:00:38;13.90;;;12.40;;
13568;SDS011;6856;51.460;7.158;2022-11-20T06:03:19;14.87;;;13.03;;
13568;SDS011;6856;51.460;7.158;2022-11-20T06:09:13;15.00;;;12.73;;
13568;SDS011;6856;51.460;7.158;2022-11-20T06:11:54;15.87;;;13.53;;
13568;SDS011;6856;51.460;7.158;2022-11-20T06:14:39;14.83;;;12.40;;
13568;SDS011;6856;51.460;7.158;2022-11-20T06:17:15;14.93;;;13.00;;
13568;SDS011;6856;51.460;7.158;2022-11-20T06:20:17;14.57;;;12.27;;
13568;SDS011;6856;51.460;7.158;2022-11-20T06:23:02;14.60;;;13.10;;
13568;SDS011;6856;51.460;7.158;2022-11-20T06:25:45;15.77;;;13.63;;
13568;SDS011;6856;51.460;7.158;2022-11-20T06:28:25;15.27;;;12.73;;
13568;SDS011;6856;51.460;7.158;2022-11-20T06:31:04;15.77;;;13.70;;
13568;SDS011;6856;51.460;7.158;2022-11-20T06:33:43;15.73;;;13.67;;
13568;SDS011;6856;51.460;7.158;2022-11-20T06:36:23;14.50;;;12.60;;
13568;SDS011;6856;51.460;7.158;2022-11-20T06:39:14;13.07;;;11.67;;
13568;SDS011;6856;51.460;7.158;2022-11-20T06:41:52;16.93;;;13.03;;
13568;SDS011;6856;51.460;7.158;2022-11-20T06:44:31;16.63;;;13.57;;
13568;SDS011;6856;51.460;7.158;2022-11-20T06:47:06;16.37;;;12.63;;
13568;SDS011;6856;51.460;7.158;2022-11-20T06:49:47;12.63;;;11.27;;
13568;SDS011;6856;51.460;7.158;2022-11-20T06:52:24;14.17;;;11.43;;
13568;SDS011;6856;51.460;7.158;2022-11-20T06:55:03;12.47;;;10.97;;
13568;SDS011;6856;51.460;7.158;2022-11-20T06:57:39;14.37;;;12.87;;
13568;SDS011;6856;51.460;7.158;2022-11-20T07:00:18;13.23;;;11.37;;
13568;SDS011;6856;51.460;7.158;2022-11-20T07:03:16;15.00;;;11.77;;
13568;SDS011;6856;51.460;7.158;2022-11-20T07:05:58;11.77;;;10.27;;
13568;SDS011;6856;51.460;7.158;2022-11-20T07:08:42;10.73;;;9.63;;
13568;SDS011;6856;51.460;7.158;2022-11-20T07:11:22;10.50;;;9.40;;
13568;SDS011;6856;51.460;7.158;2022-11-20T07:14:01;11.23;;;9.63;;
13568;SDS011;6856;51.460;7.158;2022-11-20T07:16:37;11.60;;;9.77;;
13568;SDS011;6856;51.460;7.158;2022-11-20T07:19:18;10.30;;;9.00;;
13568;SDS011;6856;51.460;7.158;2022-11-20T07:22:00;11.13;;;9.20;;
13568;SDS011;6856;51.460;7.158;2022-11-20T07:24:41;11.10;;;9.43;;
13568;SDS011;6856;51.460;7.158;2022-11-20T07:27:41;10.13;;;8.63;;
13568;SDS011;6856;51.460;7.158;2022-11-20T07:30:21;11.30;;;8.50;;
13568;SDS011;6856;51.460;7.158;2022-11-20T07:32:56;10.47;;;8.80;;
13568;SDS011;6856;51.460;7.158;2022-11-20T07:35:34;9.67;;;8.60;;
13568;SDS011;6856;51.460;7.158;2022-11-20T07:38:19;10.07;;;8.73;;
13568;SDS011;6856;51.460;7.158;2022-11-20T07:44:12;11.60;;;9.13;;
13568;SDS011;6856;51.460;7.158;2022-11-20T07:47:34;8.63;;;7.73;;
13568;SDS011;6856;51.460;7.158;2022-11-20T07:50:33;8.83;;;7.93;;
13568;SDS011;6856;51.460;7.158;2022-11-20T07:53:09;10.27;;;9.00;;
13568;SDS011;6856;51.460;7.158;2022-11-20T07:55:48;9.47;;;8.30;;
13568;SDS011;6856;51.460;7.158;2022-11-20T07:59:14;9.93;;;8.67;;
13568;SDS011;6856;51.460;7.158;2022-11-20T08:06:58;9.80;;;8.67;;
13568;SDS011;6856;51.460;7.158;2022-11-20T08:13:43;11.17;;;9.03;;
13568;SDS011;6856;51.460;7.158;2022-11-20T08:16:36;9.43;;;8.33;;
13568;SDS011;6856;51.460;7.158;2022-11-20T08:19:17;11.57;;;10.37;;
13568;SDS011;6856;51.460;7.158;2022-11-20T08:21:57;10.77;;;8.87;;
13568;SDS011;6856;51.460;7.158;2022-11-20T08:24:59;11.53;;;8.77;;
13568;SDS011;6856;51.460;7.158;2022-11-20T08:27:45;11.87;;;9.63;;
13568;SDS011;6856;51.460;7.158;2022-11-20T08:30:31;10.67;;;9.57;;
13568;SDS011;6856;51.460;7.158;2022-11-20T08:33:27;11.30;;;9.67;;
13568;SDS011;6856;51.460;7.158;2022-11-20T08:36:20;10.53;;;9.07;;
13568;SDS011;6856;51.460;7.158;2022-11-20T08:42:45;10.63;;;9.43;;
13568;SDS011;6856;51.460;7.158;2022-11-20T08:45:26;11.27;;;9.77;;
13568;SDS011;6856;51.460;7.158;2022-11-20T08:48:07;12.63;;;10.63;;
13568;SDS011;6856;51.460;7.158;2022-11-20T08:50:51;12.80;;;11.00;;
13568;SDS011;6856;51.460;7.158;2022-11-20T08:53:38;14.00;;;11.57;;
13568;SDS011;6856;51.460;7.158;2022-11-20T08:56:32;11.33;;;10.23;;
13568;SDS011;6856;51.460;7.158;2022-11-20T08:59:35;12.90;;;11.30;;
13568;SDS011;6856;51.460;7.158;2022-11-20T09:02:40;12.53;;;11.20;;
13568;SDS011;6856;51.460;7.158;2022-11-20T09:05:32;16.63;;;13.47;;
13568;SDS011;6856;51.460;7.158;2022-11-20T09:08:14;14.50;;;12.27;;
13568;SDS011;6856;51.460;7.158;2022-11-20T09:10:50;13.50;;;11.37;;
13568;SDS011;6856;51.460;7.158;2022-11-20T09:13:32;14.70;;;12.27;;
13568;SDS011;6856;51.460;7.158;2022-11-20T09:16:10;14.00;;;12.47;;
13568;SDS011;6856;51.460;7.158;2022-11-20T09:19:16;14.83;;;11.83;;
13568;SDS011;6856;51.460;7.158;2022-11-20T09:22:10;13.73;;;11.83;;
13568;SDS011;6856;51.460;7.158;2022-11-20T09:24:54;12.77;;;11.07;;
13568;SDS011;6856;51.460;7.158;2022-11-20T09:27:43;13.43;;;11.33;;
13568;SDS011;6856;51.460;7.158;2022-11-20T09:30:25;12.13;;;10.53;;
13568;SDS011;6856;51.460;7.158;2022-11-20T09:33:11;12.33;;;10.17;;
13568;SDS011;6856;51.460;7.158;2022-11-20T09:36:00;11.20;;;9.63;;
13568;SDS011;6856;51.460;7.158;2022-11-20T09:38:43;12.17;;;10.33;;
13568;SDS011;6856;51.460;7.158;2022-11-20T09:41:30;11.53;;;10.33;;
13568;SDS011;6856;51.460;7.158;2022-11-20T09:44:37;11.93;;;9.70;;
13568;SDS011;6856;51.460;7.158;2022-11-20T09:47:48;11.73;;;10.43;;
13568;SDS011;6856;51.460;7.158;2022-11-20T09:50:55;11.93;;;9.87;;
13568;SDS011;6856;51.460;7.158;2022-11-20T09:54:03;13.00;;;10.70;;
13568;SDS011;6856;51.460;7.158;2022-11-20T09:56:55;13.47;;;10.23;;
13568;SDS011;6856;51.460;7.158;2022-11-20T09:59:38;11.93;;;10.07;;
13568;SDS011;6856;51.460;7.158;2022-11-20T10:02:26;11.80;;;10.20;;
13568;SDS011;6856;51.460;7.158;2022-11-20T10:05:35;11.00;;;9.70;;
13568;SDS011;6856;51.460;7.158;2022-11-20T10:08:32;11.87;;;9.83;;
13568;SDS011;6856;51.460;7.158;2022-11-20T10:11:28;10.90;;;9.20;;
13568;SDS011;6856;51.460;7.158;2022-11-20T10:14:34;12.37;;;10.07;;
13568;SDS011;6856;51.460;7.158;2022-11-20T10:21:24;11.77;;;9.03;;
13568;SDS011;6856;51.460;7.158;2022-11-20T10:24:41;11.10;;;9.30;;
13568;SDS011;6856;51.460;7.158;2022-11-20T10:27:44;9.90;;;8.27;;
13568;SDS011;6856;51.460;7.158;2022-11-20T10:30:50;12.20;;;9.30;;
13568;SDS011;6856;51.460;7.158;2022-11-20T10:33:51;9.03;;;6.10;;
13568;SDS011;6856;51.460;7.158;2022-11-20T10:36:52;8.80;;;7.60;;
13568;SDS011;6856;51.460;7.158;2022-11-20T10:39:53;10.20;;;8.40;;
13568;SDS011;6856;51.460;7.158;2022-11-20T10:42:41;8.40;;;6.97;;
13568;SDS011;6856;51.460;7.158;2022-11-20T10:45:33;7.90;;;6.63;;
13568;SDS011;6856;51.460;7.158;2022-11-20T10:48:40;8.80;;;7.17;;
13568;SDS011;6856;51.460;7.158;2022-11-20T10:51:39;7.57;;;6.37;;
13568;SDS011;6856;51.460;7.158;2022-11-20T10:54:39;8.23;;;6.57;;
13568;SDS011;6856;51.460;7.158;2022-11-20T10:57:27;9.43;;;6.80;;
13568;SDS011;6856;51.460;7.158;2022-11-20T11:00:30;9.50;;;7.13;;
13568;SDS011;6856;51.460;7.158;2022-11-20T11:03:13;8.43;;;6.63;;
13568;SDS011;6856;51.460;7.158;2022-11-20T11:06:01;7.97;;;6.00;;
13568;SDS011;6856;51.460;7.158;2022-11-20T11:08:42;7.67;;;6.00;;
13568;SDS011;6856;51.460;7.158;2022-11-20T11:11:26;7.87;;;6.50;;
13568;SDS011;6856;51.460;7.158;2022-11-20T11:14:22;12.80;;;6.47;;
13568;SDS011;6856;51.460;7.158;2022-11-20T11:17:45;7.33;;;5.70;;
13568;SDS011;6856;51.460;7.158;2022-11-20T11:21:00;6.77;;;5.70;;
13568;SDS011;6856;51.460;7.158;2022-11-20T11:23:42;8.60;;;6.50;;
13568;SDS011;6856;51.460;7.158;2022-11-20T11:27:00;7.60;;;6.73;;
13568;SDS011;6856;51.460;7.158;2022-11-20T11:30:27;8.57;;;7.00;;
13568;SDS011;6856;51.460;7.158;2022-11-20T11:34:18;7.20;;;6.10;;
13568;SDS011;6856;51.460;7.158;2022-11-20T11:38:16;7.67;;;6.13;;
13568;SDS011;6856;51.460;7.158;2022-11-20T11:45:52;9.10;;;7.00;;
13568;SDS011;6856;51.460;7.158;2022-11-20T11:49:38;8.27;;;6.57;;
13568;SDS011;6856;51.460;7.158;2022-11-20T11:53:16;7.67;;;6.27;;
13568;SDS011;6856;51.460;7.158;2022-11-20T11:56:33;8.27;;;6.43;;
13568;SDS011;6856;51.460;7.158;2022-11-20T12:07:59;8.00;;;6.40;;
13568;SDS011;6856;51.460;7.158;2022-11-20T12:11:42;8.27;;;6.80;;
13568;SDS011;6856;51.460;7.158;2022-11-20T12:15:25;8.70;;;6.57;;
13568;SDS011;6856;51.460;7.158;2022-11-20T12:18:32;9.23;;;7.50;;
13568;SDS011;6856;51.460;7.158;2022-11-20T12:21:57;9.57;;;7.17;;
13568;SDS011;6856;51.460;7.158;2022-11-20T12:28:54;8.27;;;6.90;;
13568;SDS011;6856;51.460;7.158;2022-11-20T12:32:56;9.10;;;6.73;;
13568;SDS011;6856;51.460;7.158;2022-11-20T12:39:42;9.30;;;7.23;;
13568;SDS011;6856;51.460;7.158;2022-11-20T12:43:19;8.97;;;7.20;;
13568;SDS011;6856;51.460;7.158;2022-11-20T12:51:35;9.77;;;7.47;;
13568;SDS011;6856;51.460;7.158;2022-11-20T13:07:00;9.83;;;7.77;;
13568;SDS011;6856;51.460;7.158;2022-11-20T13:10:48;10.17;;;7.93;;
13568;SDS011;6856;51.460;7.158;2022-11-20T13:14:50;9.13;;;7.17;;
13568;SDS011;6856;51.460;7.158;2022-11-20T13:18:21;9.40;;;7.30;;
13568;SDS011;6856;51.460;7.158;2022-11-20T13:26:13;8.50;;;6.83;;
13568;SDS011;6856;51.460;7.158;2022-11-20T13:30:30;12.07;;;7.73;;
13568;SDS011;6856;51.460;7.158;2022-11-20T13:33:49;10.83;;;8.30;;
13568;SDS011;6856;51.460;7.158;2022-11-20T13:37:40;9.40;;;6.93;;
13568;SDS011;6856;51.460;7.158;2022-11-20T13:40:22;10.20;;;8.03;;
13568;SDS011;6856;51.460;7.158;2022-11-20T13:43:17;10.00;;;8.70;;
13568;SDS011;6856;51.460;7.158;2022-11-20T13:46:15;11.53;;;8.63;;
13568;SDS011;6856;51.460;7.158;2022-11-20T13:49:08;9.90;;;7.70;;
13568;SDS011;6856;51.460;7.158;2022-11-20T13:52:17;9.67;;;8.03;;
13568;SDS011;6856;51.460;7.158;2022-11-20T13:55:21;11.17;;;8.50;;
13568;SDS011;6856;51.460;7.158;2022-11-20T13:58:23;12.10;;;9.20;;
13568;SDS011;6856;51.460;7.158;2022-11-20T14:01:23;11.33;;;8.90;;
13568;SDS011;6856;51.460;7.158;2022-11-20T14:04:06;10.30;;;7.60;;
13568;SDS011;6856;51.460;7.158;2022-11-20T14:07:14;11.17;;;8.37;;
13568;SDS011;6856;51.460;7.158;2022-11-20T14:10:05;9.57;;;8.10;;
13568;SDS011;6856;51.460;7.158;2022-11-20T14:13:10;8.73;;;7.50;;
13568;SDS011;6856;51.460;7.158;2022-11-20T14:15:56;9.43;;;7.57;;
13568;SDS011;6856;51.460;7.158;2022-11-20T14:18:45;9.73;;;8.13;;
13568;SDS011;6856;51.460;7.158;2022-11-20T14:22:19;10.17;;;7.97;;
13568;SDS011;6856;51.460;7.158;2022-11-20T14:25:03;12.07;;;8.73;;
13568;SDS011;6856;51.460;7.158;2022-11-20T14:28:02;11.13;;;8.63;;
13568;SDS011;6856;51.460;7.158;2022-11-20T14:34:22;10.30;;;8.10;;
13568;SDS011;6856;51.460;7.158;2022-11-20T14:37:05;9.27;;;7.83;;
13568;SDS011;6856;51.460;7.158;2022-11-20T14:43:56;11.47;;;8.57;;
13568;SDS011;6856;51.460;7.158;2022-11-20T14:46:41;10.80;;;7.93;;
13568;SDS011;6856;51.460;7.158;2022-11-20T14:49:24;10.73;;;8.20;;
13568;SDS011;6856;51.460;7.158;2022-11-20T14:52:10;11.63;;;8.90;;
13568;SDS011;6856;51.460;7.158;2022-11-20T14:54:49;10.70;;;8.73;;
13568;SDS011;6856;51.460;7.158;2022-11-20T14:57:39;11.00;;;8.97;;
13568;SDS011;6856;51.460;7.158;2022-11-20T15:00:19;10.83;;;8.53;;
13568;SDS011;6856;51.460;7.158;2022-11-20T15:02:55;12.70;;;10.23;;
13568;SDS011;6856;51.460;7.158;2022-11-20T15:08:26;9.90;;;8.50;;
13568;SDS011;6856;51.460;7.158;2022-11-20T15:11:16;11.47;;;8.90;;
13568;SDS011;6856;51.460;7.158;2022-11-20T15:14:01;10.30;;;8.53;;
13568;SDS011;6856;51.460;7.158;2022-11-20T15:16:46;11.53;;;9.20;;
13568;SDS011;6856;51.460;7.158;2022-11-20T15:19:26;11.73;;;9.10;;
13568;SDS011;6856;51.460;7.158;2022-11-20T15:40:26;10.90;;;8.87;;
13568;SDS011;6856;51.460;7.158;2022-11-20T16:12:53;11.47;;;9.43;;
13568;SDS011;6856;51.460;7.158;2022-11-20T16:15:50;14.40;;;11.07;;
13568;SDS011;6856;51.460;7.158;2022-11-20T16:18:37;13.23;;;11.57;;
13568;SDS011;6856;51.460;7.158;2022-11-20T16:21:33;13.57;;;11.00;;
13568;SDS011;6856;51.460;7.158;2022-11-20T16:24:18;14.07;;;11.57;;
13568;SDS011;6856;51.460;7.158;2022-11-20T16:27:12;13.63;;;11.30;;
13568;SDS011;6856;51.460;7.158;2022-11-20T16:29:53;12.97;;;10.80;;
13568;SDS011;6856;51.460;7.158;2022-11-20T16:32:41;14.13;;;11.87;;
13568;SDS011;6856;51.460;7.158;2022-11-20T16:35:15;13.97;;;11.87;;
13568;SDS011;6856;51.460;7.158;2022-11-20T16:37:58;14.47;;;12.03;;
13568;SDS011;6856;51.460;7.158;2022-11-20T16:40:40;16.53;;;12.77;;
13568;SDS011;6856;51.460;7.158;2022-11-20T16:43:17;13.43;;;11.33;;
13568;SDS011;6856;51.460;7.158;2022-11-20T16:49:23;16.37;;;13.23;;
13568;SDS011;6856;51.460;7.158;2022-11-20T16:52:13;14.50;;;12.07;;
13568;SDS011;6856;51.460;7.158;2022-11-20T16:58:00;15.53;;;11.63;;
13568;SDS011;6856;51.460;7.158;2022-11-20T17:01:08;15.03;;;11.40;;
13568;SDS011;6856;51.460;7.158;2022-11-20T17:04:05;15.50;;;11.60;;
13568;SDS011;6856;51.460;7.158;2022-11-20T17:07:00;14.90;;;11.40;;
13568;SDS011;6856;51.460;7.158;2022-11-20T17:10:20;12.70;;;10.60;;
13568;SDS011;6856;51.460;7.158;2022-11-20T17:13:06;13.60;;;10.83;;
13568;SDS011;6856;51.460;7.158;2022-11-20T17:15:46;14.13;;;10.97;;
13568;SDS011;6856;51.460;7.158;2022-11-20T17:18:55;13.23;;;10.43;;
13568;SDS011;6856;51.460;7.158;2022-11-20T17:21:41;15.07;;;10.80;;
13568;SDS011;6856;51.460;7.158;2022-11-20T17:27:55;13.00;;;9.83;;
13568;SDS011;6856;51.460;7.158;2022-11-20T17:34:25;13.83;;;11.47;;
13568;SDS011;6856;51.460;7.158;2022-11-20T17:37:21;12.93;;;10.80;;
13568;SDS011;6856;51.460;7.158;2022-11-20T17:40:14;13.63;;;11.10;;
13568;SDS011;6856;51.460;7.158;2022-11-20T17:43:30;12.07;;;9.87;;
13568;SDS011;6856;51.460;7.158;2022-11-20T17:46:35;11.03;;;8.87;;
13568;SDS011;6856;51.460;7.158;2022-11-20T17:49:31;11.13;;;9.47;;
13568;SDS011;6856;51.460;7.158;2022-11-20T17:55:54;12.13;;;9.10;;
13568;SDS011;6856;51.460;7.158;2022-11-20T18:50:07;5.97;;;4.33;;
13568;SDS011;6856;51.460;7.158;2022-11-20T18:54:00;5.80;;;4.00;;
13568;SDS011;6856;51.460;7.158;2022-11-20T19:02:33;4.53;;;3.30;;
13568;SDS011;6856;51.460;7.158;2022-11-20T19:05:15;4.83;;;3.30;;
13568;SDS011;6856;51.460;7.158;2022-11-20T19:08:01;4.67;;;3.10;;
13568;SDS011;6856;51.460;7.158;2022-11-20T19:10:52;4.13;;;3.03;;
13568;SDS011;6856;51.460;7.158;2022-11-20T19:17:28;4.33;;;2.83;;
13568;SDS011;6856;51.460;7.158;2022-11-20T19:20:11;4.43;;;2.90;;
13568;SDS011;6856;51.460;7.158;2022-11-20T19:22:53;4.87;;;3.17;;
13568;SDS011;6856;51.460;7.158;2022-11-20T19:25:41;4.43;;;2.87;;
13568;SDS011;6856;51.460;7.158;2022-11-20T19:28:38;3.10;;;2.50;;
13568;SDS011;6856;51.460;7.158;2022-11-20T19:35:28;2.87;;;2.30;;
13568;SDS011;6856;51.460;7.158;2022-11-20T19:38:29;3.43;;;2.47;;
13568;SDS011;6856;51.460;7.158;2022-11-20T19:41:33;3.33;;;2.57;;
13568;SDS011;6856;51.460;7.158;2022-11-20T19:47:27;2.70;;;2.23;;
13568;SDS011;6856;51.460;7.158;2022-11-20T19:50:45;3.30;;;2.73;;
13568;SDS011;6856;51.460;7.158;2022-11-20T19:53:35;3.67;;;2.80;;
13568;SDS011;6856;51.460;7.158;2022-11-20T20:00:37;4.13;;;2.90;;
13568;SDS011;6856;51.460;7.158;2022-11-20T20:03:14;3.77;;;2.63;;
13568;SDS011;6856;51.460;7.158;2022-11-20T20:09:00;4.13;;;2.90;;
13568;SDS011;6856;51.460;7.158;2022-11-20T20:11:48;4.40;;;3.10;;
13568;SDS011;6856;51.460;7.158;2022-11-20T20:14:44;3.67;;;2.80;;
13568;SDS011;6856;51.460;7.158;2022-11-20T20:20:37;5.33;;;3.43;;
13568;SDS011;6856;51.460;7.158;2022-11-20T20:23:14;4.80;;;3.53;;
13568;SDS011;6856;51.460;7.158;2022-11-20T20:25:55;4.97;;;4.30;;
13568;SDS011;6856;51.460;7.158;2022-11-20T20:28:35;4.97;;;4.20;;
13568;SDS011;6856;51.460;7.158;2022-11-20T20:31:35;6.63;;;4.73;;
13568;SDS011;6856;51.460;7.158;2022-11-20T20:34:53;6.77;;;6.17;;
13568;SDS011;6856;51.460;7.158;2022-11-20T20:37:44;6.87;;;6.17;;
13568;SDS011;6856;51.460;7.158;2022-11-20T20:40:44;7.53;;;6.73;;
13568;SDS011;6856;51.460;7.158;2022-11-20T20:43:29;7.80;;;7.00;;
13568;SDS011;6856;51.460;7.158;2022-11-20T20:46:32;7.43;;;6.73;;
13568;SDS011;6856;51.460;7.158;2022-11-20T20:49:23;8.60;;;7.70;;
13568;SDS011;6856;51.460;7.158;2022-11-20T20:52:01;10.07;;;9.07;;
13568;SDS011;6856;51.460;7.158;2022-11-20T20:54:40;11.87;;;10.50;;
13568;SDS011;6856;51.460;7.158;2022-11-20T20:57:17;11.23;;;10.00;;
13568;SDS011;6856;51.460;7.158;2022-11-20T20:59:52;10.77;;;9.67;;
13568;SDS011;6856;51.460;7.158;2022-11-20T21:03:09;12.47;;;9.77;;
13568;SDS011;6856;51.460;7.158;2022-11-20T21:06:01;10.13;;;9.13;;
13568;SDS011;6856;51.460;7.158;2022-11-20T21:08:42;11.07;;;9.97;;
13568;SDS011;6856;51.460;7.158;2022-11-20T21:11:22;10.97;;;9.87;;
13568;SDS011;6856;51.460;7.158;2022-11-20T21:14:30;11.47;;;10.27;;
13568;SDS011;6856;51.460;7.158;2022-11-20T21:17:29;12.07;;;10.37;;
13568;SDS011;6856;51.460;7.158;2022-11-20T21:20:47;10.83;;;9.70;;
13568;SDS011;6856;51.460;7.158;2022-11-20T21:24:30;11.07;;;9.90;;
13568;SDS011;6856;51.460;7.158;2022-11-20T21:27:31;10.30;;;9.20;;
13568;SDS011;6856;51.460;7.158;2022-11-20T21:30:33;11.53;;;9.77;;
13568;SDS011;6856;51.460;7.158;2022-11-20T21:33:45;10.60;;;9.50;;
13568;SDS011;6856;51.460;7.158;2022-11-20T21:36:33;12.03;;;9.83;;
13568;SDS011;6856;51.460;7.158;2022-11-20T21:39:25;11.90;;;9.67;;
13568;SDS011;6856;51.460;7.158;2022-11-20T21:42:26;12.97;;;9.87;;
13568;SDS011;6856;51.460;7.158;2022-11-20T21:45:16;14.17;;;10.80;;
13568;SDS011;6856;51.460;7.158;2022-11-20T21:48:04;13.67;;;11.17;;
13568;SDS011;6856;51.460;7.158;2022-11-20T21:51:19;13.97;;;10.60;;
13568;SDS011;6856;51.460;7.158;2022-11-20T21:54:13;15.67;;;12.07;;
13568;SDS011;6856;51.460;7.158;2022-11-20T22:00:59;10.67;;;8.60;;
13568;SDS011;6856;51.460;7.158;2022-11-20T22:04:00;10.13;;;9.00;;
13568;SDS011;6856;51.460;7.158;2022-11-20T22:06:44;11.17;;;9.50;;
13568;SDS011;6856;51.460;7.158;2022-11-20T22:09:46;11.80;;;9.40;;
13568;SDS011;6856;51.460;7.158;2022-11-20T22:12:48;11.27;;;9.90;;
13568;SDS011;6856;51.460;7.158;2022-11-20T22:16:05;10.50;;;9.03;;